VIR225 EGPH-KMIA
Flight info
| Callsign | VIR225 |
|---|---|
| Flight time | N/A |
| Altitude | 36000 |
| Route | GOSAM DCT TRN DCT NIBOG DCT RESNO/M084F360 DCT 56N020W 57N030W 56N040W 55N050W DCT LOMSI/N0481F360 DCT KONCH/N0474F380 DCT BOBBS/N0476F400 DCT CASTR DCT MOBAL DCT HANAA DCT SPOTZ DCT COLIN DCT HPW DCT ILM DCT JRDAN AR3 CASPR Y307 NUCAR DCT MORME BNFSH3 |
| Aircraft | A359/H-SDE2E3GHIJ3J4J5LM1ORWXY/LB1D1 |
Departure
| Time | 2026-04-26 10:56 |
|---|---|
| Airport | Edinburgh Airport (EGPH) |
Arrival
| Time | N/A |
|---|---|
| Airport | Miami International Airport (KMIA) |
| Time | Latitude | Longitude | Altitude | Speed | Heading |
|---|---|---|---|---|---|
| 2026-04-26 10:24 | 55.95023 | -3.35997 | 108 ft | 0 kts | 244° |
| 2026-04-26 10:24 | 55.94975 | -3.36005 | 108 ft | 0 kts | 250° |
| 2026-04-26 10:47 | 55.94978 | -3.35988 | 108 ft | 2 kts | 250° |
| 2026-04-26 10:47 | 55.94984 | -3.35963 | 109 ft | 2 kts | 250° |
| 2026-04-26 10:47 | 55.94989 | -3.35937 | 109 ft | 2 kts | 250° |
| 2026-04-26 10:48 | 55.94994 | -3.35912 | 110 ft | 2 kts | 271° |
| 2026-04-26 10:48 | 55.94992 | -3.35886 | 110 ft | 2 kts | 317° |
| 2026-04-26 10:48 | 55.94980 | -3.35871 | 111 ft | 2 kts | 356° |
| 2026-04-26 10:48 | 55.94965 | -3.35870 | 111 ft | 2 kts | 357° |
| 2026-04-26 10:49 | 55.94964 | -3.35870 | 110 ft | 0 kts | 356° |
| 2026-04-26 10:52 | 55.94965 | -3.35870 | 110 ft | 1 kts | 357° |
| 2026-04-26 10:52 | 55.94992 | -3.35856 | 111 ft | 5 kts | 25° |
| 2026-04-26 10:52 | 55.95038 | -3.35809 | 110 ft | 11 kts | 30° |
| 2026-04-26 10:52 | 55.95114 | -3.35846 | 109 ft | 12 kts | 303° |
| 2026-04-26 10:53 | 55.95173 | -3.35956 | 108 ft | 9 kts | 323° |
| 2026-04-26 10:53 | 55.95221 | -3.35985 | 108 ft | 5 kts | 25° |
| 2026-04-26 10:53 | 55.95249 | -3.35931 | 108 ft | 6 kts | 57° |
| 2026-04-26 10:54 | 55.95361 | -3.35610 | 107 ft | 24 kts | 59° |
| 2026-04-26 10:54 | 55.95422 | -3.35438 | 107 ft | 14 kts | 47° |
| 2026-04-26 10:54 | 55.95516 | -3.35456 | 105 ft | 19 kts | 330° |
| 2026-04-26 10:54 | 55.95564 | -3.35531 | 105 ft | 10 kts | 284° |
| 2026-04-26 10:55 | 55.95544 | -3.35637 | 105 ft | 0 kts | 239° |
| 2026-04-26 10:55 | 55.95540 | -3.35652 | 105 ft | 10 kts | 239° |
| 2026-04-26 10:56 | 55.95384 | -3.36114 | 107 ft | 78 kts | 238° |
| 2026-04-26 10:56 | 55.94988 | -3.37281 | 105 ft | 139 kts | 239° |
| 2026-04-26 10:56 | 55.94405 | -3.39018 | 179 ft | 182 kts | 239° |
| 2026-04-26 10:56 | 55.93749 | -3.40964 | 774 ft | 185 kts | 239° |
| 2026-04-26 10:57 | 55.93089 | -3.42835 | 1642 ft | 174 kts | 239° |
| 2026-04-26 10:57 | 55.92437 | -3.44677 | 2244 ft | 181 kts | 239° |
| 2026-04-26 10:57 | 55.91758 | -3.46621 | 2559 ft | 193 kts | 240° |
| 2026-04-26 10:57 | 55.91029 | -3.48732 | 2865 ft | 207 kts | 243° |
| 2026-04-26 10:58 | 55.90472 | -3.50940 | 3156 ft | 219 kts | 255° |
| 2026-04-26 10:58 | 55.90158 | -3.53276 | 3438 ft | 231 kts | 261° |
| 2026-04-26 10:58 | 55.89822 | -3.56724 | 3823 ft | 249 kts | 262° |
| 2026-04-26 10:58 | 55.89542 | -3.59725 | 4263 ft | 259 kts | 262° |
| 2026-04-26 10:59 | 55.89258 | -3.62687 | 4868 ft | 260 kts | 262° |
| 2026-04-26 10:59 | 55.88638 | -3.68972 | 6056 ft | 264 kts | 261° |
| 2026-04-26 10:59 | 55.88295 | -3.72385 | 6812 ft | 263 kts | 261° |
| 2026-04-26 11:00 | 55.88013 | -3.75192 | 7396 ft | 264 kts | 261° |
| 2026-04-26 11:00 | 55.87678 | -3.78519 | 8061 ft | 265 kts | 263° |
| 2026-04-26 11:00 | 55.87613 | -3.81690 | 8678 ft | 264 kts | 274° |
| 2026-04-26 11:00 | 55.87736 | -3.84822 | 9278 ft | 265 kts | 275° |
| 2026-04-26 11:01 | 55.87859 | -3.87499 | 9765 ft | 267 kts | 275° |
| 2026-04-26 11:01 | 55.87974 | -3.90086 | 10227 ft | 268 kts | 274° |
| 2026-04-26 11:01 | 55.88227 | -3.96174 | 10783 ft | 290 kts | 273° |
| 2026-04-26 11:02 | 55.88142 | -3.99310 | 10986 ft | 302 kts | 257° |